sensor_id;sensor_type;location;lat;lon;timestamp;P1;durP1;ratioP1;P2;durP2;ratioP2
13222;SDS011;6676;45.192;5.722;2022-07-23T00:01:55;6.53;;;5.70;;
13222;SDS011;6676;45.192;5.722;2022-07-23T00:04:46;9.10;;;5.72;;
13222;SDS011;6676;45.192;5.722;2022-07-23T00:07:38;6.00;;;5.30;;
13222;SDS011;6676;45.192;5.722;2022-07-23T00:10:29;7.12;;;5.55;;
13222;SDS011;6676;45.192;5.722;2022-07-23T00:13:20;7.80;;;5.78;;
13222;SDS011;6676;45.192;5.722;2022-07-23T00:16:11;10.50;;;5.90;;
13222;SDS011;6676;45.192;5.722;2022-07-23T00:19:02;6.35;;;5.47;;
13222;SDS011;6676;45.192;5.722;2022-07-23T00:21:53;7.78;;;5.20;;
13222;SDS011;6676;45.192;5.722;2022-07-23T00:24:44;6.60;;;4.97;;
13222;SDS011;6676;45.192;5.722;2022-07-23T00:27:37;6.28;;;5.30;;
13222;SDS011;6676;45.192;5.722;2022-07-23T00:30:28;5.75;;;5.08;;
13222;SDS011;6676;45.192;5.722;2022-07-23T00:33:20;5.28;;;4.78;;
13222;SDS011;6676;45.192;5.722;2022-07-23T00:36:12;9.03;;;4.80;;
13222;SDS011;6676;45.192;5.722;2022-07-23T00:39:03;6.00;;;4.85;;
13222;SDS011;6676;45.192;5.722;2022-07-23T00:41:55;6.47;;;4.65;;
13222;SDS011;6676;45.192;5.722;2022-07-23T00:44:46;8.63;;;4.75;;
13222;SDS011;6676;45.192;5.722;2022-07-23T00:47:41;6.40;;;4.33;;
13222;SDS011;6676;45.192;5.722;2022-07-23T00:50:32;8.20;;;4.67;;
13222;SDS011;6676;45.192;5.722;2022-07-23T00:53:23;7.10;;;4.50;;
13222;SDS011;6676;45.192;5.722;2022-07-23T00:56:15;7.05;;;4.45;;
13222;SDS011;6676;45.192;5.722;2022-07-23T00:59:06;4.83;;;4.15;;
13222;SDS011;6676;45.192;5.722;2022-07-23T01:01:58;5.80;;;4.28;;
13222;SDS011;6676;45.192;5.722;2022-07-23T01:04:49;4.97;;;3.92;;
13222;SDS011;6676;45.192;5.722;2022-07-23T01:07:41;7.05;;;4.40;;
13222;SDS011;6676;45.192;5.722;2022-07-23T01:10:33;4.78;;;4.08;;
13222;SDS011;6676;45.192;5.722;2022-07-23T01:13:26;6.22;;;3.92;;
13222;SDS011;6676;45.192;5.722;2022-07-23T01:16:17;7.00;;;4.22;;
13222;SDS011;6676;45.192;5.722;2022-07-23T01:19:09;5.60;;;4.00;;
13222;SDS011;6676;45.192;5.722;2022-07-23T01:22:02;6.92;;;4.33;;
13222;SDS011;6676;45.192;5.722;2022-07-23T01:24:55;6.60;;;4.30;;
13222;SDS011;6676;45.192;5.722;2022-07-23T01:27:49;4.60;;;4.12;;
13222;SDS011;6676;45.192;5.722;2022-07-23T01:30:43;6.72;;;4.00;;
13222;SDS011;6676;45.192;5.722;2022-07-23T01:33:38;5.30;;;4.40;;
13222;SDS011;6676;45.192;5.722;2022-07-23T01:36:33;6.33;;;4.33;;
13222;SDS011;6676;45.192;5.722;2022-07-23T01:39:32;6.00;;;4.58;;
13222;SDS011;6676;45.192;5.722;2022-07-23T01:42:27;7.42;;;4.60;;
13222;SDS011;6676;45.192;5.722;2022-07-23T01:45:25;5.08;;;4.33;;
13222;SDS011;6676;45.192;5.722;2022-07-23T01:48:19;5.55;;;4.30;;
13222;SDS011;6676;45.192;5.722;2022-07-23T01:51:24;7.22;;;4.60;;
13222;SDS011;6676;45.192;5.722;2022-07-23T01:54:30;4.60;;;3.98;;
13222;SDS011;6676;45.192;5.722;2022-07-23T01:57:27;5.20;;;4.12;;
13222;SDS011;6676;45.192;5.722;2022-07-23T02:00:21;4.72;;;4.17;;
13222;SDS011;6676;45.192;5.722;2022-07-23T02:03:15;6.20;;;4.35;;
13222;SDS011;6676;45.192;5.722;2022-07-23T02:06:10;5.25;;;4.40;;
13222;SDS011;6676;45.192;5.722;2022-07-23T02:09:03;5.08;;;4.65;;
13222;SDS011;6676;45.192;5.722;2022-07-23T02:11:58;8.33;;;4.90;;
13222;SDS011;6676;45.192;5.722;2022-07-23T02:14:53;4.85;;;4.35;;
13222;SDS011;6676;45.192;5.722;2022-07-23T02:17:46;6.35;;;4.58;;
13222;SDS011;6676;45.192;5.722;2022-07-23T02:20:41;8.75;;;4.22;;
13222;SDS011;6676;45.192;5.722;2022-07-23T02:23:35;6.40;;;4.25;;
13222;SDS011;6676;45.192;5.722;2022-07-23T02:26:31;4.75;;;4.25;;
13222;SDS011;6676;45.192;5.722;2022-07-23T02:29:25;5.90;;;4.60;;
13222;SDS011;6676;45.192;5.722;2022-07-23T02:32:28;6.90;;;4.65;;
13222;SDS011;6676;45.192;5.722;2022-07-23T02:35:23;5.80;;;4.78;;
13222;SDS011;6676;45.192;5.722;2022-07-23T02:38:19;5.47;;;4.60;;
13222;SDS011;6676;45.192;5.722;2022-07-23T02:41:13;6.97;;;4.75;;
13222;SDS011;6676;45.192;5.722;2022-07-23T02:44:07;6.80;;;4.72;;
13222;SDS011;6676;45.192;5.722;2022-07-23T02:47:01;6.33;;;4.55;;
13222;SDS011;6676;45.192;5.722;2022-07-23T02:49:57;6.47;;;4.62;;
13222;SDS011;6676;45.192;5.722;2022-07-23T02:52:50;4.92;;;4.37;;
13222;SDS011;6676;45.192;5.722;2022-07-23T02:55:45;5.22;;;4.62;;
13222;SDS011;6676;45.192;5.722;2022-07-23T02:58:40;5.28;;;4.75;;
13222;SDS011;6676;45.192;5.722;2022-07-23T03:01:34;5.70;;;4.65;;
13222;SDS011;6676;45.192;5.722;2022-07-23T03:04:29;5.25;;;4.75;;
13222;SDS011;6676;45.192;5.722;2022-07-23T03:07:21;5.50;;;4.15;;
13222;SDS011;6676;45.192;5.722;2022-07-23T03:10:13;7.25;;;4.50;;
13222;SDS011;6676;45.192;5.722;2022-07-23T03:13:04;7.80;;;4.90;;
13222;SDS011;6676;45.192;5.722;2022-07-23T03:15:55;7.00;;;4.72;;
13222;SDS011;6676;45.192;5.722;2022-07-23T03:18:46;5.65;;;4.62;;
13222;SDS011;6676;45.192;5.722;2022-07-23T03:21:38;6.62;;;4.70;;
13222;SDS011;6676;45.192;5.722;2022-07-23T03:24:29;5.85;;;4.95;;
13222;SDS011;6676;45.192;5.722;2022-07-23T03:27:40;6.25;;;5.25;;
13222;SDS011;6676;45.192;5.722;2022-07-23T03:30:31;7.30;;;4.97;;
13222;SDS011;6676;45.192;5.722;2022-07-23T03:33:22;5.97;;;5.00;;
13222;SDS011;6676;45.192;5.722;2022-07-23T03:36:14;7.03;;;5.17;;
13222;SDS011;6676;45.192;5.722;2022-07-23T03:39:06;7.03;;;5.12;;
13222;SDS011;6676;45.192;5.722;2022-07-23T03:41:59;6.80;;;4.83;;
13222;SDS011;6676;45.192;5.722;2022-07-23T03:44:50;7.17;;;5.12;;
13222;SDS011;6676;45.192;5.722;2022-07-23T03:47:41;6.35;;;4.87;;
13222;SDS011;6676;45.192;5.722;2022-07-23T03:50:34;8.45;;;4.42;;
13222;SDS011;6676;45.192;5.722;2022-07-23T03:53:26;8.28;;;5.17;;
13222;SDS011;6676;45.192;5.722;2022-07-23T03:56:17;7.83;;;5.00;;
13222;SDS011;6676;45.192;5.722;2022-07-23T03:59:08;6.75;;;4.95;;
13222;SDS011;6676;45.192;5.722;2022-07-23T04:01:59;6.67;;;5.15;;
13222;SDS011;6676;45.192;5.722;2022-07-23T04:04:51;6.33;;;4.83;;
13222;SDS011;6676;45.192;5.722;2022-07-23T04:07:42;5.85;;;4.75;;
13222;SDS011;6676;45.192;5.722;2022-07-23T04:10:33;6.95;;;4.75;;
13222;SDS011;6676;45.192;5.722;2022-07-23T04:13:26;6.20;;;5.08;;
13222;SDS011;6676;45.192;5.722;2022-07-23T04:16:17;5.33;;;4.80;;
13222;SDS011;6676;45.192;5.722;2022-07-23T04:19:10;7.03;;;5.47;;
13222;SDS011;6676;45.192;5.722;2022-07-23T04:22:02;6.78;;;5.50;;
13222;SDS011;6676;45.192;5.722;2022-07-23T04:24:54;5.20;;;4.65;;
13222;SDS011;6676;45.192;5.722;2022-07-23T04:27:45;6.58;;;5.20;;
13222;SDS011;6676;45.192;5.722;2022-07-23T04:30:36;6.20;;;5.12;;
13222;SDS011;6676;45.192;5.722;2022-07-23T04:33:29;6.25;;;5.10;;
13222;SDS011;6676;45.192;5.722;2022-07-23T04:36:21;5.97;;;4.95;;
13222;SDS011;6676;45.192;5.722;2022-07-23T04:39:13;7.17;;;5.75;;
13222;SDS011;6676;45.192;5.722;2022-07-23T04:42:04;6.83;;;5.90;;
13222;SDS011;6676;45.192;5.722;2022-07-23T04:44:56;8.18;;;5.80;;
13222;SDS011;6676;45.192;5.722;2022-07-23T04:47:47;8.05;;;5.15;;
13222;SDS011;6676;45.192;5.722;2022-07-23T04:50:38;10.00;;;5.72;;
13222;SDS011;6676;45.192;5.722;2022-07-23T04:53:41;7.10;;;5.55;;
13222;SDS011;6676;45.192;5.722;2022-07-23T04:56:33;10.95;;;5.65;;
13222;SDS011;6676;45.192;5.722;2022-07-23T04:59:25;7.92;;;5.90;;
13222;SDS011;6676;45.192;5.722;2022-07-23T05:02:19;6.42;;;5.83;;
13222;SDS011;6676;45.192;5.722;2022-07-23T05:05:10;6.10;;;5.60;;
13222;SDS011;6676;45.192;5.722;2022-07-23T05:08:03;5.70;;;5.17;;
13222;SDS011;6676;45.192;5.722;2022-07-23T05:10:56;6.10;;;5.53;;
13222;SDS011;6676;45.192;5.722;2022-07-23T05:13:48;9.50;;;5.85;;
13222;SDS011;6676;45.192;5.722;2022-07-23T05:16:40;6.33;;;5.72;;
13222;SDS011;6676;45.192;5.722;2022-07-23T05:19:33;7.20;;;5.95;;
13222;SDS011;6676;45.192;5.722;2022-07-23T05:22:25;7.58;;;6.25;;
13222;SDS011;6676;45.192;5.722;2022-07-23T05:25:17;7.20;;;6.15;;
13222;SDS011;6676;45.192;5.722;2022-07-23T05:28:08;8.28;;;5.65;;
13222;SDS011;6676;45.192;5.722;2022-07-23T05:30:59;6.72;;;5.92;;
13222;SDS011;6676;45.192;5.722;2022-07-23T05:33:52;7.00;;;6.20;;
13222;SDS011;6676;45.192;5.722;2022-07-23T05:36:44;13.50;;;6.97;;
13222;SDS011;6676;45.192;5.722;2022-07-23T05:39:37;8.38;;;6.67;;
13222;SDS011;6676;45.192;5.722;2022-07-23T05:42:28;10.80;;;7.05;;
13222;SDS011;6676;45.192;5.722;2022-07-23T05:45:19;7.42;;;6.70;;
13222;SDS011;6676;45.192;5.722;2022-07-23T05:48:12;8.35;;;6.58;;
13222;SDS011;6676;45.192;5.722;2022-07-23T05:51:06;7.37;;;6.67;;
13222;SDS011;6676;45.192;5.722;2022-07-23T05:53:57;7.75;;;6.62;;
13222;SDS011;6676;45.192;5.722;2022-07-23T05:56:50;11.00;;;6.67;;
13222;SDS011;6676;45.192;5.722;2022-07-23T05:59:42;9.50;;;6.75;;
13222;SDS011;6676;45.192;5.722;2022-07-23T06:02:33;8.68;;;7.08;;
13222;SDS011;6676;45.192;5.722;2022-07-23T06:05:25;8.18;;;7.30;;
13222;SDS011;6676;45.192;5.722;2022-07-23T06:08:17;8.45;;;6.90;;
13222;SDS011;6676;45.192;5.722;2022-07-23T06:11:09;7.62;;;6.70;;
13222;SDS011;6676;45.192;5.722;2022-07-23T06:14:00;7.60;;;6.47;;
13222;SDS011;6676;45.192;5.722;2022-07-23T06:16:53;8.83;;;6.85;;
13222;SDS011;6676;45.192;5.722;2022-07-23T06:19:45;9.08;;;7.47;;
13222;SDS011;6676;45.192;5.722;2022-07-23T06:22:38;9.70;;;7.45;;
13222;SDS011;6676;45.192;5.722;2022-07-23T06:25:18;9.68;;;6.97;;
13222;SDS011;6676;45.192;5.722;2022-07-23T06:28:09;9.48;;;7.80;;
13222;SDS011;6676;45.192;5.722;2022-07-23T06:31:02;13.35;;;7.97;;
13222;SDS011;6676;45.192;5.722;2022-07-23T06:33:53;10.30;;;8.13;;
13222;SDS011;6676;45.192;5.722;2022-07-23T06:36:44;11.50;;;7.83;;
13222;SDS011;6676;45.192;5.722;2022-07-23T06:39:35;8.93;;;7.83;;
13222;SDS011;6676;45.192;5.722;2022-07-23T06:42:27;7.80;;;7.10;;
13222;SDS011;6676;45.192;5.722;2022-07-23T06:45:18;9.73;;;7.50;;
13222;SDS011;6676;45.192;5.722;2022-07-23T06:48:10;7.62;;;6.92;;
13222;SDS011;6676;45.192;5.722;2022-07-23T06:51:02;8.73;;;7.87;;
13222;SDS011;6676;45.192;5.722;2022-07-23T06:53:54;7.70;;;6.92;;
13222;SDS011;6676;45.192;5.722;2022-07-23T06:56:46;7.35;;;6.75;;
13222;SDS011;6676;45.192;5.722;2022-07-23T06:59:37;8.70;;;7.33;;
13222;SDS011;6676;45.192;5.722;2022-07-23T07:02:29;7.67;;;6.90;;
13222;SDS011;6676;45.192;5.722;2022-07-23T07:05:21;9.35;;;7.22;;
13222;SDS011;6676;45.192;5.722;2022-07-23T07:08:14;8.20;;;7.40;;
13222;SDS011;6676;45.192;5.722;2022-07-23T07:11:05;7.17;;;6.50;;
13222;SDS011;6676;45.192;5.722;2022-07-23T07:13:57;7.78;;;7.08;;
13222;SDS011;6676;45.192;5.722;2022-07-23T07:16:48;7.72;;;6.78;;
13222;SDS011;6676;45.192;5.722;2022-07-23T07:19:39;7.30;;;6.60;;
13222;SDS011;6676;45.192;5.722;2022-07-23T07:22:30;6.87;;;6.22;;
13222;SDS011;6676;45.192;5.722;2022-07-23T07:25:21;8.50;;;7.40;;
13222;SDS011;6676;45.192;5.722;2022-07-23T07:28:12;8.00;;;7.03;;
13222;SDS011;6676;45.192;5.722;2022-07-23T07:31:04;8.23;;;6.62;;
13222;SDS011;6676;45.192;5.722;2022-07-23T07:33:56;7.58;;;6.87;;
13222;SDS011;6676;45.192;5.722;2022-07-23T07:36:48;7.25;;;6.55;;
13222;SDS011;6676;45.192;5.722;2022-07-23T07:39:39;7.90;;;7.10;;
13222;SDS011;6676;45.192;5.722;2022-07-23T07:42:31;7.80;;;7.08;;
13222;SDS011;6676;45.192;5.722;2022-07-23T07:45:23;7.72;;;6.33;;
13222;SDS011;6676;45.192;5.722;2022-07-23T07:48:15;7.30;;;6.55;;
13222;SDS011;6676;45.192;5.722;2022-07-23T07:51:07;8.58;;;6.33;;
13222;SDS011;6676;45.192;5.722;2022-07-23T07:53:59;7.70;;;6.95;;
13222;SDS011;6676;45.192;5.722;2022-07-23T07:56:51;7.55;;;6.85;;
13222;SDS011;6676;45.192;5.722;2022-07-23T07:59:43;7.95;;;7.15;;
13222;SDS011;6676;45.192;5.722;2022-07-23T08:02:40;8.90;;;7.30;;
13222;SDS011;6676;45.192;5.722;2022-07-23T08:05:32;9.53;;;7.60;;
13222;SDS011;6676;45.192;5.722;2022-07-23T08:08:23;8.45;;;7.58;;
13222;SDS011;6676;45.192;5.722;2022-07-23T08:11:15;8.43;;;7.60;;
13222;SDS011;6676;45.192;5.722;2022-07-23T08:14:06;8.00;;;7.30;;
13222;SDS011;6676;45.192;5.722;2022-07-23T08:16:59;7.70;;;6.90;;
13222;SDS011;6676;45.192;5.722;2022-07-23T08:19:51;8.40;;;7.65;;
13222;SDS011;6676;45.192;5.722;2022-07-23T08:22:44;8.30;;;7.50;;
13222;SDS011;6676;45.192;5.722;2022-07-23T08:25:37;7.12;;;6.53;;
13222;SDS011;6676;45.192;5.722;2022-07-23T08:28:32;7.72;;;6.92;;
13222;SDS011;6676;45.192;5.722;2022-07-23T08:31:24;11.12;;;7.17;;
13222;SDS011;6676;45.192;5.722;2022-07-23T08:34:18;7.55;;;6.87;;
13222;SDS011;6676;45.192;5.722;2022-07-23T08:37:30;9.28;;;8.30;;
13222;SDS011;6676;45.192;5.722;2022-07-23T08:40:11;8.98;;;7.65;;
13222;SDS011;6676;45.192;5.722;2022-07-23T08:43:03;8.60;;;7.75;;
13222;SDS011;6676;45.192;5.722;2022-07-23T08:45:57;8.25;;;7.50;;
13222;SDS011;6676;45.192;5.722;2022-07-23T08:48:50;11.10;;;7.62;;
13222;SDS011;6676;45.192;5.722;2022-07-23T08:51:44;8.85;;;7.95;;
13222;SDS011;6676;45.192;5.722;2022-07-23T08:54:35;11.80;;;8.40;;
13222;SDS011;6676;45.192;5.722;2022-07-23T08:57:28;9.30;;;8.30;;
13222;SDS011;6676;45.192;5.722;2022-07-23T09:00:20;9.45;;;8.00;;
13222;SDS011;6676;45.192;5.722;2022-07-23T09:03:15;9.08;;;8.03;;
13222;SDS011;6676;45.192;5.722;2022-07-23T09:06:08;8.58;;;7.78;;
13222;SDS011;6676;45.192;5.722;2022-07-23T09:08:59;8.65;;;7.85;;
13222;SDS011;6676;45.192;5.722;2022-07-23T09:12:02;8.65;;;7.85;;
13222;SDS011;6676;45.192;5.722;2022-07-23T09:14:55;10.48;;;7.53;;
13222;SDS011;6676;45.192;5.722;2022-07-23T09:17:48;8.95;;;7.87;;
13222;SDS011;6676;45.192;5.722;2022-07-23T09:20:39;8.45;;;7.62;;
13222;SDS011;6676;45.192;5.722;2022-07-23T09:23:37;8.38;;;7.45;;
13222;SDS011;6676;45.192;5.722;2022-07-23T09:26:29;8.47;;;7.13;;
13222;SDS011;6676;45.192;5.722;2022-07-23T09:29:25;8.00;;;7.30;;
13222;SDS011;6676;45.192;5.722;2022-07-23T09:32:17;13.78;;;7.78;;
13222;SDS011;6676;45.192;5.722;2022-07-23T09:35:08;7.67;;;6.97;;
13222;SDS011;6676;45.192;5.722;2022-07-23T09:38:03;7.97;;;7.03;;
13222;SDS011;6676;45.192;5.722;2022-07-23T09:41:08;8.20;;;7.50;;
13222;SDS011;6676;45.192;5.722;2022-07-23T09:44:06;8.85;;;7.37;;
13222;SDS011;6676;45.192;5.722;2022-07-23T09:46:59;7.53;;;6.80;;
13222;SDS011;6676;45.192;5.722;2022-07-23T09:50:01;7.87;;;7.10;;
13222;SDS011;6676;45.192;5.722;2022-07-23T09:52:54;8.33;;;6.90;;
13222;SDS011;6676;45.192;5.722;2022-07-23T09:55:46;7.62;;;6.92;;
13222;SDS011;6676;45.192;5.722;2022-07-23T09:58:41;7.37;;;6.67;;
13222;SDS011;6676;45.192;5.722;2022-07-23T10:01:38;7.50;;;6.80;;
13222;SDS011;6676;45.192;5.722;2022-07-23T10:04:30;7.15;;;6.45;;
13222;SDS011;6676;45.192;5.722;2022-07-23T10:07:38;7.40;;;6.62;;
13222;SDS011;6676;45.192;5.722;2022-07-23T10:10:51;7.00;;;6.25;;
13222;SDS011;6676;45.192;5.722;2022-07-23T10:13:50;7.10;;;6.30;;
13222;SDS011;6676;45.192;5.722;2022-07-23T10:16:42;7.28;;;6.53;;
13222;SDS011;6676;45.192;5.722;2022-07-23T10:19:37;7.67;;;6.90;;
13222;SDS011;6676;45.192;5.722;2022-07-23T10:22:30;6.78;;;6.00;;
13222;SDS011;6676;45.192;5.722;2022-07-23T10:25:35;6.83;;;6.22;;
13222;SDS011;6676;45.192;5.722;2022-07-23T10:28:22;7.05;;;6.35;;
13222;SDS011;6676;45.192;5.722;2022-07-23T10:34:58;7.33;;;6.58;;
13222;SDS011;6676;45.192;5.722;2022-07-23T10:37:53;7.10;;;6.40;;
13222;SDS011;6676;45.192;5.722;2022-07-23T10:40:53;7.47;;;6.70;;
13222;SDS011;6676;45.192;5.722;2022-07-23T10:43:50;7.33;;;6.70;;
13222;SDS011;6676;45.192;5.722;2022-07-23T10:46:56;7.00;;;6.40;;
13222;SDS011;6676;45.192;5.722;2022-07-23T10:50:13;6.70;;;6.10;;
13222;SDS011;6676;45.192;5.722;2022-07-23T10:55:56;7.92;;;6.40;;
13222;SDS011;6676;45.192;5.722;2022-07-23T10:58:48;8.48;;;6.70;;
13222;SDS011;6676;45.192;5.722;2022-07-23T11:01:41;7.08;;;6.20;;
13222;SDS011;6676;45.192;5.722;2022-07-23T11:04:49;7.15;;;6.45;;
13222;SDS011;6676;45.192;5.722;2022-07-23T11:11:09;8.03;;;6.45;;
13222;SDS011;6676;45.192;5.722;2022-07-23T11:14:01;7.47;;;6.67;;
13222;SDS011;6676;45.192;5.722;2022-07-23T11:16:53;7.17;;;6.42;;
13222;SDS011;6676;45.192;5.722;2022-07-23T11:23:16;7.12;;;6.53;;
13222;SDS011;6676;45.192;5.722;2022-07-23T11:26:09;7.47;;;6.78;;
13222;SDS011;6676;45.192;5.722;2022-07-23T11:32:37;7.22;;;6.60;;
13222;SDS011;6676;45.192;5.722;2022-07-23T11:35:33;7.40;;;6.80;;
13222;SDS011;6676;45.192;5.722;2022-07-23T11:38:30;7.05;;;6.45;;
13222;SDS011;6676;45.192;5.722;2022-07-23T11:41:22;7.28;;;6.58;;
13222;SDS011;6676;45.192;5.722;2022-07-23T11:44:24;7.17;;;6.47;;
13222;SDS011;6676;45.192;5.722;2022-07-23T11:47:20;8.45;;;6.92;;
13222;SDS011;6676;45.192;5.722;2022-07-23T11:50:12;6.62;;;6.00;;
13222;SDS011;6676;45.192;5.722;2022-07-23T11:53:04;7.87;;;7.08;;
13222;SDS011;6676;45.192;5.722;2022-07-23T11:56:06;7.12;;;6.53;;
13222;SDS011;6676;45.192;5.722;2022-07-23T11:58:59;7.37;;;6.67;;
13222;SDS011;6676;45.192;5.722;2022-07-23T12:01:58;6.70;;;6.05;;
13222;SDS011;6676;45.192;5.722;2022-07-23T12:04:51;7.47;;;6.78;;
13222;SDS011;6676;45.192;5.722;2022-07-23T12:07:43;7.80;;;7.00;;
13222;SDS011;6676;45.192;5.722;2022-07-23T12:10:37;7.45;;;6.75;;
13222;SDS011;6676;45.192;5.722;2022-07-23T12:13:30;7.17;;;6.45;;
13222;SDS011;6676;45.192;5.722;2022-07-23T12:16:22;7.37;;;6.62;;
13222;SDS011;6676;45.192;5.722;2022-07-23T12:21:53;7.55;;;6.83;;
13222;SDS011;6676;45.192;5.722;2022-07-23T12:24:55;7.17;;;6.47;;
13222;SDS011;6676;45.192;5.722;2022-07-23T12:27:57;9.75;;;6.85;;
13222;SDS011;6676;45.192;5.722;2022-07-23T12:30:49;7.83;;;7.03;;
13222;SDS011;6676;45.192;5.722;2022-07-23T12:33:42;7.42;;;6.72;;
13222;SDS011;6676;45.192;5.722;2022-07-23T12:42:11;7.67;;;6.97;;
13222;SDS011;6676;45.192;5.722;2022-07-23T12:45:06;7.37;;;6.78;;
13222;SDS011;6676;45.192;5.722;2022-07-23T12:48:01;7.45;;;6.62;;
13222;SDS011;6676;45.192;5.722;2022-07-23T12:53:50;7.95;;;6.92;;
13222;SDS011;6676;45.192;5.722;2022-07-23T12:56:44;6.78;;;6.17;;
13222;SDS011;6676;45.192;5.722;2022-07-23T12:59:36;7.35;;;6.65;;
13222;SDS011;6676;45.192;5.722;2022-07-23T13:02:28;6.90;;;6.20;;
13222;SDS011;6676;45.192;5.722;2022-07-23T13:05:27;7.80;;;6.87;;
13222;SDS011;6676;45.192;5.722;2022-07-23T13:08:18;7.40;;;6.75;;
13222;SDS011;6676;45.192;5.722;2022-07-23T13:11:11;6.92;;;6.35;;
13222;SDS011;6676;45.192;5.722;2022-07-23T13:14:02;7.15;;;6.53;;
13222;SDS011;6676;45.192;5.722;2022-07-23T13:16:56;6.95;;;6.28;;
13222;SDS011;6676;45.192;5.722;2022-07-23T13:22:26;8.13;;;6.35;;
13222;SDS011;6676;45.192;5.722;2022-07-23T13:28:02;6.45;;;5.80;;
13222;SDS011;6676;45.192;5.722;2022-07-23T13:30:55;6.67;;;6.10;;
13222;SDS011;6676;45.192;5.722;2022-07-23T13:33:50;7.12;;;6.53;;
13222;SDS011;6676;45.192;5.722;2022-07-23T13:36:46;7.53;;;6.40;;
13222;SDS011;6676;45.192;5.722;2022-07-23T13:42:38;8.43;;;6.53;;
13222;SDS011;6676;45.192;5.722;2022-07-23T13:45:29;7.10;;;6.40;;
13222;SDS011;6676;45.192;5.722;2022-07-23T13:48:20;7.15;;;6.50;;
13222;SDS011;6676;45.192;5.722;2022-07-23T13:51:13;6.78;;;6.17;;
13222;SDS011;6676;45.192;5.722;2022-07-23T13:54:10;6.92;;;6.30;;
13222;SDS011;6676;45.192;5.722;2022-07-23T13:57:02;7.00;;;6.40;;
13222;SDS011;6676;45.192;5.722;2022-07-23T13:59:55;7.50;;;6.53;;
13222;SDS011;6676;45.192;5.722;2022-07-23T14:02:48;6.80;;;6.20;;
13222;SDS011;6676;45.192;5.722;2022-07-23T14:05:40;7.12;;;6.42;;
13222;SDS011;6676;45.192;5.722;2022-07-23T14:08:32;8.13;;;6.72;;
13222;SDS011;6676;45.192;5.722;2022-07-23T14:11:23;6.45;;;5.87;;
13222;SDS011;6676;45.192;5.722;2022-07-23T14:14:17;7.90;;;7.10;;
13222;SDS011;6676;45.192;5.722;2022-07-23T14:17:09;7.55;;;6.53;;
13222;SDS011;6676;45.192;5.722;2022-07-23T14:20:02;7.17;;;6.30;;
13222;SDS011;6676;45.192;5.722;2022-07-23T14:25:37;7.10;;;6.42;;
13222;SDS011;6676;45.192;5.722;2022-07-23T14:28:28;7.60;;;6.80;;
13222;SDS011;6676;45.192;5.722;2022-07-23T14:35:20;7.12;;;6.42;;
13222;SDS011;6676;45.192;5.722;2022-07-23T14:41:12;6.97;;;6.37;;
13222;SDS011;6676;45.192;5.722;2022-07-23T14:44:04;6.80;;;6.20;;
13222;SDS011;6676;45.192;5.722;2022-07-23T14:46:54;7.40;;;6.37;;
13222;SDS011;6676;45.192;5.722;2022-07-23T14:49:46;6.87;;;6.28;;
13222;SDS011;6676;45.192;5.722;2022-07-23T14:52:32;7.12;;;6.22;;
13222;SDS011;6676;45.192;5.722;2022-07-23T14:58:10;6.67;;;6.08;;
13222;SDS011;6676;45.192;5.722;2022-07-23T15:01:01;6.70;;;6.05;;
13222;SDS011;6676;45.192;5.722;2022-07-23T15:03:53;7.33;;;6.55;;
13222;SDS011;6676;45.192;5.722;2022-07-23T15:09:29;6.55;;;5.95;;
13222;SDS011;6676;45.192;5.722;2022-07-23T15:12:24;6.70;;;6.10;;
13222;SDS011;6676;45.192;5.722;2022-07-23T15:15:28;7.17;;;6.45;;
13222;SDS011;6676;45.192;5.722;2022-07-23T15:18:19;6.40;;;5.80;;
13222;SDS011;6676;45.192;5.722;2022-07-23T15:21:20;7.25;;;6.55;;
13222;SDS011;6676;45.192;5.722;2022-07-23T15:24:11;6.40;;;5.87;;
13222;SDS011;6676;45.192;5.722;2022-07-23T15:26:52;7.12;;;6.40;;
13222;SDS011;6676;45.192;5.722;2022-07-23T15:32:28;6.58;;;5.80;;
13222;SDS011;6676;45.192;5.722;2022-07-23T15:35:20;6.40;;;5.90;;
13222;SDS011;6676;45.192;5.722;2022-07-23T15:38:13;6.92;;;6.33;;
13222;SDS011;6676;45.192;5.722;2022-07-23T15:41:06;6.78;;;6.05;;
13222;SDS011;6676;45.192;5.722;2022-07-23T15:43:58;7.97;;;5.80;;
13222;SDS011;6676;45.192;5.722;2022-07-23T15:49:50;6.90;;;6.25;;
13222;SDS011;6676;45.192;5.722;2022-07-23T15:52:43;6.70;;;6.05;;
13222;SDS011;6676;45.192;5.722;2022-07-23T15:55:52;6.70;;;6.08;;
13222;SDS011;6676;45.192;5.722;2022-07-23T15:58:45;6.85;;;6.20;;
13222;SDS011;6676;45.192;5.722;2022-07-23T16:01:37;7.05;;;6.10;;
13222;SDS011;6676;45.192;5.722;2022-07-23T16:04:29;6.60;;;5.92;;
13222;SDS011;6676;45.192;5.722;2022-07-23T16:07:22;6.30;;;5.80;;
13222;SDS011;6676;45.192;5.722;2022-07-23T16:10:46;6.75;;;6.15;;
13222;SDS011;6676;45.192;5.722;2022-07-23T16:13:38;6.35;;;5.85;;
13222;SDS011;6676;45.192;5.722;2022-07-23T16:16:30;7.22;;;6.50;;
13222;SDS011;6676;45.192;5.722;2022-07-23T16:19:22;6.45;;;5.85;;
13222;SDS011;6676;45.192;5.722;2022-07-23T16:22:14;6.50;;;6.00;;
13222;SDS011;6676;45.192;5.722;2022-07-23T16:25:06;6.45;;;5.85;;
13222;SDS011;6676;45.192;5.722;2022-07-23T16:28:02;6.53;;;5.92;;
13222;SDS011;6676;45.192;5.722;2022-07-23T16:30:55;6.80;;;6.10;;
13222;SDS011;6676;45.192;5.722;2022-07-23T16:33:45;6.90;;;6.30;;
13222;SDS011;6676;45.192;5.722;2022-07-23T16:36:43;6.53;;;5.85;;
13222;SDS011;6676;45.192;5.722;2022-07-23T16:39:38;6.35;;;5.65;;
13222;SDS011;6676;45.192;5.722;2022-07-23T16:42:30;7.08;;;6.37;;
13222;SDS011;6676;45.192;5.722;2022-07-23T16:45:21;6.80;;;6.20;;
13222;SDS011;6676;45.192;5.722;2022-07-23T16:51:43;6.22;;;5.72;;
13222;SDS011;6676;45.192;5.722;2022-07-23T16:54:31;6.00;;;5.50;;
13222;SDS011;6676;45.192;5.722;2022-07-23T16:57:29;6.10;;;5.60;;
13222;SDS011;6676;45.192;5.722;2022-07-23T17:00:29;6.15;;;5.65;;
13222;SDS011;6676;45.192;5.722;2022-07-23T17:03:35;5.47;;;4.97;;
13222;SDS011;6676;45.192;5.722;2022-07-23T17:06:46;6.08;;;5.33;;
13222;SDS011;6676;45.192;5.722;2022-07-23T17:09:45;6.08;;;5.42;;
13222;SDS011;6676;45.192;5.722;2022-07-23T17:12:45;5.80;;;5.30;;
13222;SDS011;6676;45.192;5.722;2022-07-23T17:18:30;6.70;;;5.97;;
13222;SDS011;6676;45.192;5.722;2022-07-23T17:21:21;6.05;;;5.47;;
13222;SDS011;6676;45.192;5.722;2022-07-23T17:24:14;6.40;;;5.67;;
13222;SDS011;6676;45.192;5.722;2022-07-23T17:27:08;8.25;;;5.97;;
13222;SDS011;6676;45.192;5.722;2022-07-23T17:30:01;5.75;;;5.30;;
13222;SDS011;6676;45.192;5.722;2022-07-23T17:32:55;6.17;;;5.40;;
13222;SDS011;6676;45.192;5.722;2022-07-23T17:35:48;7.47;;;5.28;;
13222;SDS011;6676;45.192;5.722;2022-07-23T17:54:38;6.00;;;5.40;;
13222;SDS011;6676;45.192;5.722;2022-07-23T17:57:30;5.75;;;5.15;;
13222;SDS011;6676;45.192;5.722;2022-07-23T18:00:22;5.28;;;4.75;;
13222;SDS011;6676;45.192;5.722;2022-07-23T18:03:15;7.55;;;5.03;;
13222;SDS011;6676;45.192;5.722;2022-07-23T18:36:35;5.28;;;4.80;;
13222;SDS011;6676;45.192;5.722;2022-07-23T18:39:28;5.47;;;4.92;;
13222;SDS011;6676;45.192;5.722;2022-07-23T18:42:10;6.08;;;4.85;;
13222;SDS011;6676;45.192;5.722;2022-07-23T18:45:05;5.78;;;5.12;;
13222;SDS011;6676;45.192;5.722;2022-07-23T18:47:59;6.22;;;5.28;;
13222;SDS011;6676;45.192;5.722;2022-07-23T18:50:51;4.85;;;4.40;;
13222;SDS011;6676;45.192;5.722;2022-07-23T18:53:45;5.15;;;4.65;;
13222;SDS011;6676;45.192;5.722;2022-07-23T18:56:37;5.47;;;4.90;;
13222;SDS011;6676;45.192;5.722;2022-07-23T18:59:32;5.90;;;4.75;;
13222;SDS011;6676;45.192;5.722;2022-07-23T19:02:26;5.22;;;4.60;;
13222;SDS011;6676;45.192;5.722;2022-07-23T19:05:20;5.10;;;4.60;;
13222;SDS011;6676;45.192;5.722;2022-07-23T19:08:13;5.72;;;4.40;;
13222;SDS011;6676;45.192;5.722;2022-07-23T19:11:05;7.15;;;4.90;;
13222;SDS011;6676;45.192;5.722;2022-07-23T19:13:59;5.05;;;4.55;;
13222;SDS011;6676;45.192;5.722;2022-07-23T19:16:54;5.12;;;4.62;;
13222;SDS011;6676;45.192;5.722;2022-07-23T19:19:47;5.30;;;4.67;;
13222;SDS011;6676;45.192;5.722;2022-07-23T19:22:48;5.80;;;4.30;;
13222;SDS011;6676;45.192;5.722;2022-07-23T19:25:40;5.55;;;5.00;;
13222;SDS011;6676;45.192;5.722;2022-07-23T19:28:34;5.08;;;4.50;;
13222;SDS011;6676;45.192;5.722;2022-07-23T19:31:27;5.37;;;4.53;;